Huvudsida
METAR-TAF:

METAR-TAF

Flygplatser :

Mehamns flygplats

Gamvik, Norge

latitud: 71-02N, longitud: 027-50E, höjd: 1 m

Aktuellt väderrapport

Denna rapport gjordes för 1 timme och 24 minuter sedan, klockan 10:50 UTC
Vind 14 kt från sydväst
Temperatur -1°C
Fuktighet 80%
Tryck 1020 hPa
Sikt 10 km eller mer
Spridda moln på en höjd av 3000 ft
Brutna moln på en höjd av 4500 ft

METAR: ENMH 111050Z 22014KT 9999 SCT030 BKN045 M01/M04 Q1020

Tid: 13:14 (12:14 UTC)


TAF: saknas

Aktuella väderrapporter och prognoser från 4000 flygplatser (METAR- och TAF-rapporter).

De tillgängliga stationerna syns som gula och röda prickar på kartan.

För musen över prickarna för att se namnen på stationerna.

Klicka sedan för att få väderrapporter och prognoser.

För att ändra kartan: Klicka på de gröna knapparna med ett svart kors på för att zooma in; den gröna knappen med ett streck på för att zooma ut; eller på de gröna pilarna för angränsande kartor.


METAR-TAF: